sensor_id;sensor_type;location;lat;lon;timestamp;pressure;altitude;pressure_sealevel;temperature;humidity
63088;BME280;49173;43.164;27.786;2023-02-14T00:01:21;102034.69;;;0.49;75.82
63088;BME280;49173;43.164;27.786;2023-02-14T00:03:47;102039.97;;;0.51;75.97
63088;BME280;49173;43.164;27.786;2023-02-14T00:06:14;102035.56;;;0.50;76.85
63088;BME280;49173;43.164;27.786;2023-02-14T00:08:41;102037.28;;;0.48;76.31
63088;BME280;49173;43.164;27.786;2023-02-14T00:11:10;102032.00;;;0.48;76.26
63088;BME280;49173;43.164;27.786;2023-02-14T00:13:36;102026.69;;;0.46;76.17
63088;BME280;49173;43.164;27.786;2023-02-14T00:16:02;102027.56;;;0.44;76.22
63088;BME280;49173;43.164;27.786;2023-02-14T00:18:28;102027.56;;;0.44;76.25
63088;BME280;49173;43.164;27.786;2023-02-14T00:21:12;102018.75;;;0.45;76.61
63088;BME280;49173;43.164;27.786;2023-02-14T00:23:38;102009.94;;;0.43;76.60
63088;BME280;49173;43.164;27.786;2023-02-14T00:26:04;102015.19;;;0.41;76.45
63088;BME280;49173;43.164;27.786;2023-02-14T00:28:29;102010.75;;;0.39;76.41
63088;BME280;49173;43.164;27.786;2023-02-14T00:31:00;102008.13;;;0.39;77.24
63088;BME280;49173;43.164;27.786;2023-02-14T00:33:26;102010.75;;;0.39;77.61
63088;BME280;49173;43.164;27.786;2023-02-14T00:35:51;102002.84;;;0.40;78.03
63088;BME280;49173;43.164;27.786;2023-02-14T00:38:17;102000.22;;;0.42;77.65
63088;BME280;49173;43.164;27.786;2023-02-14T00:40:43;102002.03;;;0.43;77.96
63088;BME280;49173;43.164;27.786;2023-02-14T00:43:09;101996.75;;;0.46;78.14
63088;BME280;49173;43.164;27.786;2023-02-14T00:45:34;101989.72;;;0.46;78.41
63088;BME280;49173;43.164;27.786;2023-02-14T00:48:01;101981.78;;;0.46;78.07
63088;BME280;49173;43.164;27.786;2023-02-14T00:50:27;101980.03;;;0.45;78.22
63088;BME280;49173;43.164;27.786;2023-02-14T00:52:53;101980.03;;;0.45;78.48
63088;BME280;49173;43.164;27.786;2023-02-14T00:55:19;101967.72;;;0.47;78.49
63088;BME280;49173;43.164;27.786;2023-02-14T00:57:44;101964.19;;;0.45;78.12
63088;BME280;49173;43.164;27.786;2023-02-14T01:00:11;101964.22;;;0.48;78.42
63088;BME280;49173;43.164;27.786;2023-02-14T01:02:38;101963.38;;;0.49;78.22
63088;BME280;49173;43.164;27.786;2023-02-14T01:05:04;101958.03;;;0.48;77.83
63088;BME280;49173;43.164;27.786;2023-02-14T01:07:30;101955.41;;;0.48;77.71
63088;BME280;49173;43.164;27.786;2023-02-14T01:09:55;101944.81;;;0.46;78.08
63088;BME280;49173;43.164;27.786;2023-02-14T01:12:21;101952.72;;;0.45;77.64
63088;BME280;49173;43.164;27.786;2023-02-14T01:14:47;101934.25;;;0.46;78.22
63088;BME280;49173;43.164;27.786;2023-02-14T01:17:12;101932.50;;;0.45;78.31
63088;BME280;49173;43.164;27.786;2023-02-14T01:19:38;101936.00;;;0.44;78.46
63088;BME280;49173;43.164;27.786;2023-02-14T01:22:07;101927.19;;;0.44;78.69
63088;BME280;49173;43.164;27.786;2023-02-14T01:24:34;101920.16;;;0.44;78.54
63088;BME280;49173;43.164;27.786;2023-02-14T01:26:59;101914.88;;;0.46;78.63
63088;BME280;49173;43.164;27.786;2023-02-14T01:29:26;101926.34;;;0.48;78.68
63088;BME280;49173;43.164;27.786;2023-02-14T01:31:52;101914.91;;;0.49;79.38
63088;BME280;49173;43.164;27.786;2023-02-14T01:34:18;101909.63;;;0.49;79.68
63088;BME280;49173;43.164;27.786;2023-02-14T01:36:44;101915.81;;;0.49;80.26
63088;BME280;49173;43.164;27.786;2023-02-14T01:39:11;101915.84;;;0.51;80.21
63088;BME280;49173;43.164;27.786;2023-02-14T01:41:39;101916.72;;;0.51;80.35
63088;BME280;49173;43.164;27.786;2023-02-14T01:44:49;101904.41;;;0.53;80.20
63088;BME280;49173;43.164;27.786;2023-02-14T01:46:52;101903.50;;;0.53;79.87
63088;BME280;49173;43.164;27.786;2023-02-14T01:49:27;101899.09;;;0.52;79.71
63088;BME280;49173;43.164;27.786;2023-02-14T01:52:02;101907.91;;;0.51;79.93
63088;BME280;49173;43.164;27.786;2023-02-14T01:54:34;101905.22;;;0.48;79.87
63088;BME280;49173;43.164;27.786;2023-02-14T01:57:07;101902.56;;;0.46;80.05
63088;BME280;49173;43.164;27.786;2023-02-14T01:59:40;101904.31;;;0.46;79.98
63088;BME280;49173;43.164;27.786;2023-02-14T02:02:08;101899.03;;;0.47;79.66
63088;BME280;49173;43.164;27.786;2023-02-14T02:04:38;101910.50;;;0.48;79.86
63088;BME280;49173;43.164;27.786;2023-02-14T02:07:06;101901.69;;;0.46;79.62
63088;BME280;49173;43.164;27.786;2023-02-14T02:09:37;101904.31;;;0.43;79.76
63088;BME280;49173;43.164;27.786;2023-02-14T02:12:04;101891.03;;;0.40;79.54
63088;BME280;49173;43.164;27.786;2023-02-14T02:14:31;101889.28;;;0.39;79.58
63088;BME280;49173;43.164;27.786;2023-02-14T02:17:20;101889.28;;;0.39;79.72
63088;BME280;49173;43.164;27.786;2023-02-14T02:45:06;101824.06;;;0.30;81.00
63088;BME280;49173;43.164;27.786;2023-02-14T02:47:43;101837.25;;;0.32;80.88
63088;BME280;49173;43.164;27.786;2023-02-14T02:53:31;101832.00;;;0.33;81.29
63088;BME280;49173;43.164;27.786;2023-02-14T02:56:12;101836.38;;;0.30;80.88
63088;BME280;49173;43.164;27.786;2023-02-14T02:59:20;101836.38;;;0.30;80.64
63088;BME280;49173;43.164;27.786;2023-02-14T03:02:13;101846.94;;;0.30;80.69
63088;BME280;49173;43.164;27.786;2023-02-14T03:04:46;101839.84;;;0.25;80.35
63088;BME280;49173;43.164;27.786;2023-02-14T03:07:20;101821.34;;;0.22;80.27
63088;BME280;49173;43.164;27.786;2023-02-14T03:10:06;101816.94;;;0.21;80.42
63088;BME280;49173;43.164;27.786;2023-02-14T03:21:25;101808.88;;;0.12;79.80
63088;BME280;49173;43.164;27.786;2023-02-14T03:24:11;101814.13;;;0.08;79.95
63088;BME280;49173;43.164;27.786;2023-02-14T03:27:15;101806.16;;;0.05;79.89
63088;BME280;49173;43.164;27.786;2023-02-14T03:32:44;101792.06;;;0.03;79.77
63088;BME280;49173;43.164;27.786;2023-02-14T03:35:47;101791.13;;;-0.01;79.76
63088;BME280;49173;43.164;27.786;2023-02-14T03:38:31;101784.09;;;-0.04;79.63
63088;BME280;49173;43.164;27.786;2023-02-14T03:41:06;101775.22;;;-0.09;79.84
63088;BME280;49173;43.164;27.786;2023-02-14T03:43:42;101772.56;;;-0.10;80.03
63088;BME280;49173;43.164;27.786;2023-02-14T03:46:14;101756.75;;;-0.10;80.34
63088;BME280;49173;43.164;27.786;2023-02-14T03:48:43;101757.59;;;-0.13;80.74
63088;BME280;49173;43.164;27.786;2023-02-14T03:51:11;101760.19;;;-0.14;80.98
63088;BME280;49173;43.164;27.786;2023-02-14T03:53:42;101770.75;;;-0.14;80.58
63088;BME280;49173;43.164;27.786;2023-02-14T03:56:21;101775.13;;;-0.16;80.51
63088;BME280;49173;43.164;27.786;2023-02-14T03:58:53;101761.88;;;-0.22;80.04
63088;BME280;49173;43.164;27.786;2023-02-14T04:01:31;101755.78;;;-0.18;80.48
63088;BME280;49173;43.164;27.786;2023-02-14T04:04:00;101754.00;;;-0.19;80.63
63088;BME280;49173;43.164;27.786;2023-02-14T04:06:28;101754.88;;;-0.20;80.62
63088;BME280;49173;43.164;27.786;2023-02-14T04:08:54;101760.09;;;-0.23;80.68
63088;BME280;49173;43.164;27.786;2023-02-14T04:11:20;101766.22;;;-0.28;81.04
63088;BME280;49173;43.164;27.786;2023-02-14T04:13:46;101770.63;;;-0.26;81.23
63088;BME280;49173;43.164;27.786;2023-02-14T04:16:12;101769.69;;;-0.32;80.86
63088;BME280;49173;43.164;27.786;2023-02-14T04:18:37;101769.69;;;-0.33;80.86
63088;BME280;49173;43.164;27.786;2023-02-14T04:21:22;101784.59;;;-0.35;81.00
63088;BME280;49173;43.164;27.786;2023-02-14T04:23:47;101789.88;;;-0.35;81.06
63088;BME280;49173;43.164;27.786;2023-02-14T04:26:13;101789.84;;;-0.37;80.93
63088;BME280;49173;43.164;27.786;2023-02-14T04:28:39;101786.31;;;-0.37;80.53
63088;BME280;49173;43.164;27.786;2023-02-14T04:31:05;101788.94;;;-0.39;81.15
63088;BME280;49173;43.164;27.786;2023-02-14T04:33:31;101795.09;;;-0.38;81.25
63088;BME280;49173;43.164;27.786;2023-02-14T04:35:58;101798.59;;;-0.41;80.63
63088;BME280;49173;43.164;27.786;2023-02-14T04:38:24;101797.72;;;-0.41;80.74
63088;BME280;49173;43.164;27.786;2023-02-14T04:40:51;101785.34;;;-0.45;80.53
63088;BME280;49173;43.164;27.786;2023-02-14T04:43:18;101792.41;;;-0.43;80.42
63088;BME280;49173;43.164;27.786;2023-02-14T04:45:43;101796.78;;;-0.43;80.68
63088;BME280;49173;43.164;27.786;2023-02-14T04:48:09;101802.06;;;-0.45;80.71
63088;BME280;49173;43.164;27.786;2023-02-14T04:50:35;101797.63;;;-0.47;80.79
63088;BME280;49173;43.164;27.786;2023-02-14T04:53:01;101794.06;;;-0.49;80.69
63088;BME280;49173;43.164;27.786;2023-02-14T04:55:27;101801.13;;;-0.48;80.69
63088;BME280;49173;43.164;27.786;2023-02-14T04:57:52;101801.16;;;-0.45;80.67
63088;BME280;49173;43.164;27.786;2023-02-14T05:00:18;101803.78;;;-0.47;80.54
63088;BME280;49173;43.164;27.786;2023-02-14T05:02:45;101795.88;;;-0.48;80.72
63088;BME280;49173;43.164;27.786;2023-02-14T05:05:10;101800.22;;;-0.50;80.35
63088;BME280;49173;43.164;27.786;2023-02-14T05:07:36;101787.88;;;-0.53;80.74
63088;BME280;49173;43.164;27.786;2023-02-14T05:10:04;101793.13;;;-0.56;81.13
63088;BME280;49173;43.164;27.786;2023-02-14T05:12:30;101792.19;;;-0.60;81.10
63088;BME280;49173;43.164;27.786;2023-02-14T05:14:56;101789.56;;;-0.58;80.86
63088;BME280;49173;43.164;27.786;2023-02-14T05:17:23;101787.78;;;-0.61;81.14
63088;BME280;49173;43.164;27.786;2023-02-14T05:19:48;101788.63;;;-0.63;81.49
63088;BME280;49173;43.164;27.786;2023-02-14T05:22:14;101792.19;;;-0.58;81.89
63088;BME280;49173;43.164;27.786;2023-02-14T05:24:40;101802.75;;;-0.58;81.53
63088;BME280;49173;43.164;27.786;2023-02-14T05:27:06;101810.63;;;-0.60;81.45
63088;BME280;49173;43.164;27.786;2023-02-14T05:29:32;101805.38;;;-0.58;81.59
63088;BME280;49173;43.164;27.786;2023-02-14T05:31:57;101811.63;;;-0.53;81.48
63088;BME280;49173;43.164;27.786;2023-02-14T05:34:23;101811.59;;;-0.54;81.51
63088;BME280;49173;43.164;27.786;2023-02-14T05:36:49;101808.09;;;-0.52;81.75
63088;BME280;49173;43.164;27.786;2023-02-14T05:39:15;101814.34;;;-0.47;81.99
63088;BME280;49173;43.164;27.786;2023-02-14T05:41:41;101810.91;;;-0.41;81.90
63088;BME280;49173;43.164;27.786;2023-02-14T05:44:07;101812.72;;;-0.36;81.98
63088;BME280;49173;43.164;27.786;2023-02-14T05:46:33;101815.47;;;-0.28;82.11
63088;BME280;49173;43.164;27.786;2023-02-14T05:48:58;101817.31;;;-0.21;81.96
63088;BME280;49173;43.164;27.786;2023-02-14T05:51:24;101815.66;;;-0.13;81.70
63088;BME280;49173;43.164;27.786;2023-02-14T05:53:50;101806.00;;;-0.09;81.49
63088;BME280;49173;43.164;27.786;2023-02-14T05:56:16;101804.31;;;-0.04;81.32
63088;BME280;49173;43.164;27.786;2023-02-14T05:58:42;101807.03;;;0.02;81.91
63088;BME280;49173;43.164;27.786;2023-02-14T06:01:08;101803.75;;;0.23;82.29
63088;BME280;49173;43.164;27.786;2023-02-14T06:03:34;101797.03;;;0.59;82.34
63088;BME280;49173;43.164;27.786;2023-02-14T06:06:00;101792.88;;;0.90;81.69
63088;BME280;49173;43.164;27.786;2023-02-14T06:08:26;101786.81;;;1.03;81.11
63088;BME280;49173;43.164;27.786;2023-02-14T06:10:52;101785.09;;;1.09;79.95
63088;BME280;49173;43.164;27.786;2023-02-14T06:13:18;101791.25;;;1.12;79.59
63088;BME280;49173;43.164;27.786;2023-02-14T06:15:44;101790.38;;;1.09;79.16
63088;BME280;49173;43.164;27.786;2023-02-14T06:18:09;101800.97;;;1.11;79.06
63088;BME280;49173;43.164;27.786;2023-02-14T06:20:35;101792.13;;;1.10;79.02
63088;BME280;49173;43.164;27.786;2023-02-14T06:23:01;101786.00;;;1.16;78.94
63088;BME280;49173;43.164;27.786;2023-02-14T06:25:27;101767.53;;;1.21;79.64
63088;BME280;49173;43.164;27.786;2023-02-14T06:27:57;101780.81;;;1.30;80.04
63088;BME280;49173;43.164;27.786;2023-02-14T06:30:24;101781.72;;;1.38;79.83
63088;BME280;49173;43.164;27.786;2023-02-14T06:32:50;101789.75;;;1.49;79.69
63088;BME280;49173;43.164;27.786;2023-02-14T06:35:16;101783.59;;;1.56;79.42
63088;BME280;49173;43.164;27.786;2023-02-14T06:37:42;101788.97;;;1.73;79.29
63088;BME280;49173;43.164;27.786;2023-02-14T06:40:10;101778.44;;;1.94;78.25
63088;BME280;49173;43.164;27.786;2023-02-14T06:42:37;101776.72;;;2.11;77.21
63088;BME280;49173;43.164;27.786;2023-02-14T06:45:04;101769.66;;;2.18;76.51
63088;BME280;49173;43.164;27.786;2023-02-14T06:47:30;101778.53;;;2.18;76.58
63088;BME280;49173;43.164;27.786;2023-02-14T06:49:56;101775.88;;;2.18;76.25
63088;BME280;49173;43.164;27.786;2023-02-14T06:52:25;101767.94;;;2.20;76.65
63088;BME280;49173;43.164;27.786;2023-02-14T06:54:51;101764.38;;;2.24;76.32
63088;BME280;49173;43.164;27.786;2023-02-14T06:57:16;101762.63;;;2.29;76.66
63088;BME280;49173;43.164;27.786;2023-02-14T06:59:42;101759.97;;;2.32;76.28
63088;BME280;49173;43.164;27.786;2023-02-14T07:02:10;101770.59;;;2.35;76.04
63088;BME280;49173;43.164;27.786;2023-02-14T07:04:36;101772.34;;;2.36;76.24
63088;BME280;49173;43.164;27.786;2023-02-14T07:07:02;101777.66;;;2.38;76.32
63088;BME280;49173;43.164;27.786;2023-02-14T07:09:28;101783.84;;;2.40;76.00
63088;BME280;49173;43.164;27.786;2023-02-14T07:11:54;101782.97;;;2.48;76.18
63088;BME280;49173;43.164;27.786;2023-02-14T07:14:20;101790.06;;;2.54;76.24
63088;BME280;49173;43.164;27.786;2023-02-14T07:16:46;101787.38;;;2.59;76.42
63088;BME280;49173;43.164;27.786;2023-02-14T07:19:11;101804.16;;;2.67;76.40
63088;BME280;49173;43.164;27.786;2023-02-14T07:21:37;101792.69;;;2.74;76.76
63088;BME280;49173;43.164;27.786;2023-02-14T07:24:03;101785.63;;;2.81;76.16
63088;BME280;49173;43.164;27.786;2023-02-14T07:26:29;101781.22;;;2.83;75.90
63088;BME280;49173;43.164;27.786;2023-02-14T07:28:55;101768.84;;;2.79;75.51
63088;BME280;49173;43.164;27.786;2023-02-14T07:31:21;101768.84;;;2.77;75.51
63088;BME280;49173;43.164;27.786;2023-02-14T07:33:49;101772.38;;;2.79;75.60
63088;BME280;49173;43.164;27.786;2023-02-14T07:36:15;101767.94;;;2.80;75.74
63088;BME280;49173;43.164;27.786;2023-02-14T07:38:41;101767.09;;;2.82;76.33
63088;BME280;49173;43.164;27.786;2023-02-14T07:41:06;101772.38;;;2.85;76.05
63088;BME280;49173;43.164;27.786;2023-02-14T07:43:32;101764.41;;;2.88;75.35
63088;BME280;49173;43.164;27.786;2023-02-14T07:46:02;101764.41;;;2.88;75.05
63088;BME280;49173;43.164;27.786;2023-02-14T07:48:28;101772.34;;;2.88;74.43
63088;BME280;49173;43.164;27.786;2023-02-14T07:50:54;101767.94;;;2.86;74.68
63088;BME280;49173;43.164;27.786;2023-02-14T07:53:24;101759.09;;;2.88;74.44
63088;BME280;49173;43.164;27.786;2023-02-14T07:55:51;101752.03;;;2.86;74.46
63088;BME280;49173;43.164;27.786;2023-02-14T07:58:17;101752.03;;;2.86;74.39
63088;BME280;49173;43.164;27.786;2023-02-14T08:00:43;101750.25;;;2.88;73.45
63088;BME280;49173;43.164;27.786;2023-02-14T08:03:11;101747.63;;;2.89;73.99
63088;BME280;49173;43.164;27.786;2023-02-14T08:05:38;101751.13;;;2.88;73.69
63088;BME280;49173;43.164;27.786;2023-02-14T08:08:04;101745.84;;;2.97;74.40
63088;BME280;49173;43.164;27.786;2023-02-14T08:10:30;101758.22;;;2.98;74.94
63088;BME280;49173;43.164;27.786;2023-02-14T08:12:55;101750.22;;;3.03;74.29
63088;BME280;49173;43.164;27.786;2023-02-14T08:15:30;101754.66;;;3.10;73.76
63088;BME280;49173;43.164;27.786;2023-02-14T08:18:15;101753.75;;;3.14;74.34
63088;BME280;49173;43.164;27.786;2023-02-14T08:20:43;101742.28;;;3.18;73.99
63088;BME280;49173;43.164;27.786;2023-02-14T08:23:10;101745.81;;;3.19;74.23
63088;BME280;49173;43.164;27.786;2023-02-14T08:25:36;101742.22;;;3.23;74.31
63088;BME280;49173;43.164;27.786;2023-02-14T08:28:04;101736.03;;;3.24;73.70
63088;BME280;49173;43.164;27.786;2023-02-14T08:30:30;101736.06;;;3.25;73.53
63088;BME280;49173;43.164;27.786;2023-02-14T08:32:56;101727.19;;;3.29;74.07
63088;BME280;49173;43.164;27.786;2023-02-14T08:35:22;101726.31;;;3.32;73.29
63088;BME280;49173;43.164;27.786;2023-02-14T08:37:48;101724.53;;;3.34;73.55
63088;BME280;49173;43.164;27.786;2023-02-14T08:40:14;101734.22;;;3.43;73.73
63088;BME280;49173;43.164;27.786;2023-02-14T08:42:41;101730.69;;;3.47;73.14
63088;BME280;49173;43.164;27.786;2023-02-14T08:45:07;101728.88;;;3.52;73.05
63088;BME280;49173;43.164;27.786;2023-02-14T08:47:34;101732.41;;;3.55;73.08
63088;BME280;49173;43.164;27.786;2023-02-14T08:50:01;101727.06;;;3.58;72.56
63088;BME280;49173;43.164;27.786;2023-02-14T08:52:27;101726.19;;;3.63;73.09
63088;BME280;49173;43.164;27.786;2023-02-14T08:54:53;101722.59;;;3.70;73.11
63088;BME280;49173;43.164;27.786;2023-02-14T08:57:18;101705.78;;;3.71;72.66
63088;BME280;49173;43.164;27.786;2023-02-14T08:59:44;101702.22;;;3.76;72.67
63088;BME280;49173;43.164;27.786;2023-02-14T09:02:13;101703.06;;;3.80;72.90
63088;BME280;49173;43.164;27.786;2023-02-14T09:04:41;101703.00;;;3.91;72.68
63088;BME280;49173;43.164;27.786;2023-02-14T09:07:06;101702.09;;;3.96;72.26
63088;BME280;49173;43.164;27.786;2023-02-14T09:09:32;101697.63;;;4.03;71.84
63088;BME280;49173;43.164;27.786;2023-02-14T09:12:02;101690.56;;;4.02;71.65
63088;BME280;49173;43.164;27.786;2023-02-14T09:14:29;101692.28;;;4.09;71.93
63088;BME280;49173;43.164;27.786;2023-02-14T09:16:54;101695.72;;;4.22;72.31
63088;BME280;49173;43.164;27.786;2023-02-14T09:19:20;101686.78;;;4.32;71.67
63088;BME280;49173;43.164;27.786;2023-02-14T09:21:46;101684.03;;;4.41;71.46
63088;BME280;49173;43.164;27.786;2023-02-14T09:24:11;101673.31;;;4.50;71.10
63088;BME280;49173;43.164;27.786;2023-02-14T09:26:37;101677.75;;;4.53;70.86
63088;BME280;49173;43.164;27.786;2023-02-14T09:29:05;101675.03;;;4.60;70.79
63088;BME280;49173;43.164;27.786;2023-02-14T09:31:31;101672.28;;;4.68;70.61
63088;BME280;49173;43.164;27.786;2023-02-14T09:33:57;101669.56;;;4.74;70.12
63088;BME280;49173;43.164;27.786;2023-02-14T09:36:22;101658.84;;;4.79;69.91
63088;BME280;49173;43.164;27.786;2023-02-14T09:39:06;101660.66;;;4.80;69.72
63088;BME280;49173;43.164;27.786;2023-02-14T09:44:35;101652.56;;;4.89;67.33
63088;BME280;49173;43.164;27.786;2023-02-14T09:47:15;101650.75;;;4.91;67.03
63088;BME280;49173;43.164;27.786;2023-02-14T09:49:44;101646.28;;;4.96;66.06
63088;BME280;49173;43.164;27.786;2023-02-14T09:52:13;101644.44;;;5.03;65.93
63088;BME280;49173;43.164;27.786;2023-02-14T09:54:43;101639.94;;;5.06;66.44
63088;BME280;49173;43.164;27.786;2023-02-14T09:57:35;101645.16;;;5.15;65.64
63088;BME280;49173;43.164;27.786;2023-02-14T10:11:32;101630.84;;;5.26;64.15
63088;BME280;49173;43.164;27.786;2023-02-14T10:14:04;101629.84;;;5.33;63.31
63088;BME280;49173;43.164;27.786;2023-02-14T10:16:47;101619.94;;;5.42;63.39
63088;BME280;49173;43.164;27.786;2023-02-14T10:21:48;101608.25;;;5.54;62.52
63088;BME280;49173;43.164;27.786;2023-02-14T10:24:22;101602.84;;;5.60;62.02
63088;BME280;49173;43.164;27.786;2023-02-14T10:26:52;101602.75;;;5.66;62.09
63088;BME280;49173;43.164;27.786;2023-02-14T10:29:22;101595.59;;;5.71;61.27
63088;BME280;49173;43.164;27.786;2023-02-14T10:31:59;101596.28;;;5.83;60.93
63088;BME280;49173;43.164;27.786;2023-02-14T10:34:46;101599.75;;;5.88;58.91
63088;BME280;49173;43.164;27.786;2023-02-14T10:54:08;101578.72;;;5.69;52.80
63088;BME280;49173;43.164;27.786;2023-02-14T10:56:45;101581.28;;;5.78;51.59
63088;BME280;49173;43.164;27.786;2023-02-14T10:59:22;101587.47;;;5.77;51.64
63088;BME280;49173;43.164;27.786;2023-02-14T11:01:52;101579.47;;;5.81;53.14
63088;BME280;49173;43.164;27.786;2023-02-14T11:04:21;101580.28;;;5.86;52.47
63088;BME280;49173;43.164;27.786;2023-02-14T11:06:50;101574.84;;;5.92;52.67
63088;BME280;49173;43.164;27.786;2023-02-14T11:09:22;101578.31;;;5.97;52.72
63088;BME280;49173;43.164;27.786;2023-02-14T11:11:55;101570.34;;;5.97;52.67
63088;BME280;49173;43.164;27.786;2023-02-14T11:14:34;101575.63;;;6.00;53.93
63088;BME280;49173;43.164;27.786;2023-02-14T11:17:29;101572.75;;;6.11;52.41
63088;BME280;49173;43.164;27.786;2023-02-14T11:20:23;101569.09;;;6.18;52.35
63088;BME280;49173;43.164;27.786;2023-02-14T11:22:51;101562.81;;;6.22;51.32
63088;BME280;49173;43.164;27.786;2023-02-14T11:25:22;101556.66;;;6.17;51.65
63088;BME280;49173;43.164;27.786;2023-02-14T11:27:59;101562.84;;;6.19;51.50
63088;BME280;49173;43.164;27.786;2023-02-14T11:30:39;101549.44;;;6.23;51.88
63088;BME280;49173;43.164;27.786;2023-02-14T11:33:11;101547.59;;;6.28;51.96
63088;BME280;49173;43.164;27.786;2023-02-14T11:35:38;101538.63;;;6.31;51.55
63088;BME280;49173;43.164;27.786;2023-02-14T11:38:32;101540.31;;;6.37;52.54
63088;BME280;49173;43.164;27.786;2023-02-14T11:41:12;101550.06;;;6.38;51.12
63088;BME280;49173;43.164;27.786;2023-02-14T11:43:42;101552.75;;;6.38;52.64
63088;BME280;49173;43.164;27.786;2023-02-14T11:46:27;101547.38;;;6.39;52.67
63088;BME280;49173;43.164;27.786;2023-02-14T11:49:03;101546.31;;;6.48;51.81
63088;BME280;49173;43.164;27.786;2023-02-14T11:51:41;101546.19;;;6.54;52.44
63088;BME280;49173;43.164;27.786;2023-02-14T11:57:03;101535.22;;;6.69;52.67
63088;BME280;49173;43.164;27.786;2023-02-14T12:02:20;101524.47;;;6.74;52.34
63088;BME280;49173;43.164;27.786;2023-02-14T12:04:57;101518.09;;;6.81;51.59
63088;BME280;49173;43.164;27.786;2023-02-14T12:07:37;101522.47;;;6.85;51.92
63088;BME280;49173;43.164;27.786;2023-02-14T12:12:39;101516.28;;;6.81;51.07
63088;BME280;49173;43.164;27.786;2023-02-14T12:26:35;101513.13;;;7.06;51.46
63088;BME280;49173;43.164;27.786;2023-02-14T12:31:41;101511.84;;;7.22;51.36
63088;BME280;49173;43.164;27.786;2023-02-14T12:34:12;101508.22;;;7.26;51.31
63088;BME280;49173;43.164;27.786;2023-02-14T12:42:41;101495.56;;;7.34;50.98
63088;BME280;49173;43.164;27.786;2023-02-14T12:57:53;101481.53;;;7.62;50.42
63088;BME280;49173;43.164;27.786;2023-02-14T13:00:23;101478.84;;;7.62;49.11
63088;BME280;49173;43.164;27.786;2023-02-14T13:09:24;101474.44;;;7.59;49.95
63088;BME280;49173;43.164;27.786;2023-02-14T13:12:11;101469.16;;;7.58;50.55
63088;BME280;49173;43.164;27.786;2023-02-14T13:18:11;101469.38;;;7.49;50.77
63088;BME280;49173;43.164;27.786;2023-02-14T13:23:15;101468.47;;;7.50;51.62
63088;BME280;49173;43.164;27.786;2023-02-14T13:25:53;101473.66;;;7.56;52.54
63088;BME280;49173;43.164;27.786;2023-02-14T13:28:24;101469.97;;;7.61;52.56
63088;BME280;49173;43.164;27.786;2023-02-14T13:30:54;101462.75;;;7.65;51.86
63088;BME280;49173;43.164;27.786;2023-02-14T13:33:34;101465.31;;;7.68;53.01
63088;BME280;49173;43.164;27.786;2023-02-14T13:36:09;101472.19;;;7.78;52.69
63088;BME280;49173;43.164;27.786;2023-02-14T13:38:50;101463.00;;;7.90;52.37
63088;BME280;49173;43.164;27.786;2023-02-14T13:41:21;101462.81;;;7.96;51.66
63088;BME280;49173;43.164;27.786;2023-02-14T13:43:59;101466.34;;;7.98;50.87
63088;BME280;49173;43.164;27.786;2023-02-14T13:49:28;101467.84;;;8.08;51.63
63088;BME280;49173;43.164;27.786;2023-02-14T13:52:03;101462.31;;;8.14;51.99
63088;BME280;49173;43.164;27.786;2023-02-14T13:57:29;101448.63;;;7.94;50.63
63088;BME280;49173;43.164;27.786;2023-02-14T14:02:45;101450.81;;;7.78;50.89
63088;BME280;49173;43.164;27.786;2023-02-14T14:11:00;101448.41;;;7.69;51.22
63088;BME280;49173;43.164;27.786;2023-02-14T14:19:01;101436.75;;;7.71;50.10
63088;BME280;49173;43.164;27.786;2023-02-14T14:21:31;101435.00;;;7.70;50.95
63088;BME280;49173;43.164;27.786;2023-02-14T14:24:23;101444.84;;;7.68;50.50
63088;BME280;49173;43.164;27.786;2023-02-14T14:27:03;101439.38;;;7.73;51.23
63088;BME280;49173;43.164;27.786;2023-02-14T14:29:39;101442.19;;;7.68;51.25
63088;BME280;49173;43.164;27.786;2023-02-14T14:32:33;101443.16;;;7.64;50.74
63088;BME280;49173;43.164;27.786;2023-02-14T14:35:19;101439.81;;;7.56;52.19
63088;BME280;49173;43.164;27.786;2023-02-14T14:37:53;101433.66;;;7.53;51.04
63088;BME280;49173;43.164;27.786;2023-02-14T14:40:30;101439.28;;;7.42;52.72
63088;BME280;49173;43.164;27.786;2023-02-14T14:43:12;101439.34;;;7.39;51.30
63088;BME280;49173;43.164;27.786;2023-02-14T14:45:39;101447.41;;;7.37;51.83
63088;BME280;49173;43.164;27.786;2023-02-14T14:48:10;101448.47;;;7.30;51.54
63088;BME280;49173;43.164;27.786;2023-02-14T14:50:46;101448.72;;;7.20;52.68
63088;BME280;49173;43.164;27.786;2023-02-14T14:53:49;101448.69;;;7.21;52.31
63088;BME280;49173;43.164;27.786;2023-02-14T14:56:23;101436.28;;;7.19;53.29
63088;BME280;49173;43.164;27.786;2023-02-14T14:58:54;101439.06;;;7.14;51.70
63088;BME280;49173;43.164;27.786;2023-02-14T15:01:50;101433.88;;;7.08;54.61
63088;BME280;49173;43.164;27.786;2023-02-14T15:04:29;101433.03;;;7.04;52.56
63088;BME280;49173;43.164;27.786;2023-02-14T15:07:20;101433.97;;;7.05;53.73
63088;BME280;49173;43.164;27.786;2023-02-14T15:09:49;101435.88;;;6.98;52.83
63088;BME280;49173;43.164;27.786;2023-02-14T15:12:22;101440.53;;;6.88;53.40
63088;BME280;49173;43.164;27.786;2023-02-14T15:15:14;101447.63;;;6.89;53.66
63088;BME280;49173;43.164;27.786;2023-02-14T15:17:44;101446.69;;;6.92;53.68
63088;BME280;49173;43.164;27.786;2023-02-14T15:20:22;101451.06;;;6.95;53.87
63088;BME280;49173;43.164;27.786;2023-02-14T15:22:55;101459.03;;;6.96;53.36
63088;BME280;49173;43.164;27.786;2023-02-14T15:25:32;101459.03;;;6.96;53.33
63088;BME280;49173;43.164;27.786;2023-02-14T15:28:02;101466.25;;;6.93;53.46
63088;BME280;49173;43.164;27.786;2023-02-14T15:30:31;101476.97;;;6.89;53.87
63088;BME280;49173;43.164;27.786;2023-02-14T15:33:05;101469.09;;;6.85;54.11